Time;durP1;ratioP1;P1;durP2;ratioP2;P2;SDS_P1;SDS_P2;PMS_P1;PMS_P2;Temp;Humidity;BMP_temperature;BMP_pressure;BME280_temperature;BME280_humidity;BME280_pressure;Samples;Min_cycle;Max_cycle;Signal;HPM_P1;HPM_P2
2022/07/14 00:02:18;;;;;;;2.78;1.70;;;;;;;;;;4997283;28;20603;-88
2022/07/14 00:04:46;;;;;;;5.45;2.03;;;;;;;;;;4996545;28;20228;-88
2022/07/14 00:07:13;;;;;;;2.60;2.20;;;;;;;;;;4997335;28;20232;-88
2022/07/14 00:09:40;;;;;;;2.00;1.73;;;;;;;;;;4996988;28;20306;-86
2022/07/14 00:12:07;;;;;;;2.47;2.28;;;;;;;;;;4996696;28;20690;-85
2022/07/14 00:14:34;;;;;;;3.13;1.98;;;;;;;;;;4998241;28;20246;-87
2022/07/14 00:17:02;;;;;;;2.10;1.90;;;;;;;;;;5000890;28;20295;-88
2022/07/14 00:19:29;;;;;;;7.30;2.05;;;;;;;;;;5000369;28;20236;-88
2022/07/14 00:21:57;;;;;;;2.25;2.00;;;;;;;;;;4998089;28;20678;-86
2022/07/14 00:24:24;;;;;;;2.20;1.80;;;;;;;;;;4996383;28;20654;-86
2022/07/14 00:26:51;;;;;;;4.70;1.90;;;;;;;;;;4996924;28;20617;-86
2022/07/14 00:29:18;;;;;;;2.22;1.80;;;;;;;;;;4995980;28;20239;-85
2022/07/14 00:31:45;;;;;;;5.55;2.22;;;;;;;;;;4996584;28;20243;-85
2022/07/14 00:34:12;;;;;;;2.40;1.80;;;;;;;;;;4995989;28;20711;-86
2022/07/14 00:36:39;;;;;;;2.83;2.00;;;;;;;;;;4996638;28;20727;-86
2022/07/14 00:39:08;;;;;;;4.22;1.83;;;;;;;;;;4995843;28;20247;-86
2022/07/14 00:41:35;;;;;;;2.45;1.90;;;;;;;;;;4995839;28;20232;-86
2022/07/14 00:44:02;;;;;;;4.22;1.90;;;;;;;;;;4995690;28;20289;-86
2022/07/14 00:46:30;;;;;;;3.63;3.33;;;;;;;;;;4996314;28;20726;-86
2022/07/14 00:48:57;;;;;;;4.28;2.53;;;;;;;;;;4995888;28;20244;-86
2022/07/14 00:51:24;;;;;;;3.85;1.70;;;;;;;;;;4996496;28;20219;-85
2022/07/14 00:53:52;;;;;;;2.10;1.95;;;;;;;;;;5010138;28;20224;-86
2022/07/14 00:56:20;;;;;;;2.75;1.77;;;;;;;;;;4998889;28;20196;-86
2022/07/14 00:58:48;;;;;;;1.50;1.40;;;;;;;;;;4997859;28;20247;-86
2022/07/14 01:01:15;;;;;;;2.40;1.83;;;;;;;;;;5006603;28;20227;-86
2022/07/14 01:03:42;;;;;;;3.47;1.88;;;;;;;;;;5016386;28;20596;-86
2022/07/14 01:06:09;;;;;;;3.97;1.92;;;;;;;;;;5012306;28;20207;-86
2022/07/14 01:08:36;;;;;;;3.78;2.00;;;;;;;;;;5014709;28;20242;-85
2022/07/14 01:11:03;;;;;;;2.30;2.10;;;;;;;;;;5015525;28;20281;-86
2022/07/14 01:13:31;;;;;;;3.65;1.98;;;;;;;;;;5014699;28;20239;-86
2022/07/14 01:16:02;;;;;;;4.40;1.90;;;;;;;;;;5015467;28;20218;-86
2022/07/14 01:18:29;;;;;;;2.25;2.00;;;;;;;;;;5014646;28;20267;-85
2022/07/14 01:20:56;;;;;;;5.50;2.00;;;;;;;;;;5015209;28;20223;-86
2022/07/14 01:23:25;;;;;;;3.95;2.38;;;;;;;;;;5014442;28;20239;-85
2022/07/14 01:25:52;;;;;;;2.85;2.00;;;;;;;;;;5014925;28;20214;-86
2022/07/14 01:28:19;;;;;;;3.58;2.35;;;;;;;;;;5014753;28;20235;-88
2022/07/14 01:30:46;;;;;;;2.33;2.10;;;;;;;;;;5014883;28;20237;-86
2022/07/14 01:33:13;;;;;;;3.08;2.22;;;;;;;;;;5014620;28;20328;-86
2022/07/14 01:35:40;;;;;;;2.05;1.95;;;;;;;;;;5015299;28;20580;-85
2022/07/14 01:38:07;;;;;;;2.72;2.10;;;;;;;;;;5015182;28;20261;-85
2022/07/14 01:40:36;;;;;;;3.90;2.13;;;;;;;;;;5015222;28;20235;-85
2022/07/14 01:43:03;;;;;;;2.25;2.00;;;;;;;;;;5014354;28;20231;-87
2022/07/14 01:45:32;;;;;;;2.10;1.90;;;;;;;;;;5014793;28;20654;-86
2022/07/14 01:47:59;;;;;;;3.97;2.15;;;;;;;;;;5014683;28;20251;-85
2022/07/14 01:50:28;;;;;;;2.13;1.95;;;;;;;;;;5014608;28;20683;-86
2022/07/14 01:52:55;;;;;;;2.10;1.90;;;;;;;;;;5014103;28;20619;-86
2022/07/14 01:55:22;;;;;;;1.83;1.73;;;;;;;;;;5014834;28;20686;-86
2022/07/14 01:57:50;;;;;;;3.60;1.98;;;;;;;;;;5013862;28;20227;-87
2022/07/14 02:00:17;;;;;;;2.70;1.90;;;;;;;;;;5014341;28;20203;-87
2022/07/14 02:02:45;;;;;;;3.35;2.20;;;;;;;;;;5013614;28;20221;-87
2022/07/14 02:05:12;;;;;;;4.03;2.00;;;;;;;;;;5014693;28;20583;-87
2022/07/14 02:07:39;;;;;;;1.90;1.67;;;;;;;;;;5014240;28;20231;-87
2022/07/14 02:12:53;;;;;;;2.17;1.90;;;;;;;;;;5013653;28;20221;-87
2022/07/14 02:15:21;;;;;;;7.00;2.35;;;;;;;;;;5014145;28;20207;-86
2022/07/14 02:17:48;;;;;;;4.53;2.08;;;;;;;;;;5013801;28;20239;-86
2022/07/14 02:20:16;;;;;;;3.78;2.10;;;;;;;;;;5013912;28;20212;-87
2022/07/14 02:22:43;;;;;;;3.28;1.92;;;;;;;;;;5013415;28;20214;-87
2022/07/14 02:25:10;;;;;;;2.22;2.13;;;;;;;;;;5014160;28;20199;-87
2022/07/14 02:27:37;;;;;;;2.83;2.33;;;;;;;;;;5013776;28;20358;-86
2022/07/14 02:30:07;;;;;;;2.78;2.00;;;;;;;;;;5013890;28;20227;-86
2022/07/14 02:32:35;;;;;;;4.15;2.00;;;;;;;;;;5013584;28;20218;-86
2022/07/14 02:35:03;;;;;;;2.60;2.40;;;;;;;;;;5014688;28;20242;-86
2022/07/14 02:37:30;;;;;;;2.17;1.98;;;;;;;;;;5016013;28;20793;-87
2022/07/14 02:39:57;;;;;;;2.45;1.80;;;;;;;;;;5016189;28;20246;-86
2022/07/14 02:42:24;;;;;;;2.00;1.90;;;;;;;;;;5016503;28;20234;-86
2022/07/14 02:44:51;;;;;;;2.05;1.73;;;;;;;;;;5013636;28;20786;-86
2022/07/14 02:47:19;;;;;;;3.92;1.90;;;;;;;;;;5014310;28;20231;-87
2022/07/14 02:49:46;;;;;;;2.35;1.95;;;;;;;;;;5013435;28;20235;-86
2022/07/14 02:52:13;;;;;;;2.10;2.00;;;;;;;;;;5014264;28;20211;-86
2022/07/14 02:54:40;;;;;;;3.25;1.90;;;;;;;;;;5013338;28;20242;-86
2022/07/14 02:57:07;;;;;;;2.10;1.90;;;;;;;;;;5014272;28;20296;-86
2022/07/14 02:59:34;;;;;;;1.90;1.80;;;;;;;;;;5009912;28;20227;-86
2022/07/14 03:02:02;;;;;;;2.83;1.98;;;;;;;;;;4993668;28;20905;-86
2022/07/14 03:04:30;;;;;;;1.80;1.70;;;;;;;;;;4993363;28;20745;-86
2022/07/14 03:06:57;;;;;;;8.75;2.20;;;;;;;;;;4993734;28;20712;-87
2022/07/14 03:09:24;;;;;;;2.83;1.98;;;;;;;;;;4993365;28;20708;-86
2022/07/14 03:11:51;;;;;;;2.65;2.20;;;;;;;;;;4993518;28;20215;-86
2022/07/14 03:14:18;;;;;;;3.97;2.20;;;;;;;;;;4993573;28;20236;-86
2022/07/14 03:16:45;;;;;;;5.68;2.10;;;;;;;;;;4993696;28;20239;-86
2022/07/14 03:19:13;;;;;;;2.83;1.95;;;;;;;;;;4993647;28;20239;-86
2022/07/14 03:21:41;;;;;;;2.15;1.95;;;;;;;;;;4993601;28;20238;-86
2022/07/14 03:24:08;;;;;;;2.22;2.03;;;;;;;;;;4993457;28;20257;-86
2022/07/14 03:26:36;;;;;;;2.30;2.08;;;;;;;;;;4993088;28;20232;-86
2022/07/14 03:29:03;;;;;;;2.50;2.00;;;;;;;;;;4993868;28;20235;-86
2022/07/14 03:31:31;;;;;;;4.10;2.05;;;;;;;;;;4992852;28;20716;-87
2022/07/14 03:33:58;;;;;;;2.20;2.00;;;;;;;;;;4992915;28;20235;-86
2022/07/14 03:36:25;;;;;;;2.30;2.20;;;;;;;;;;4993553;28;20196;-87
2022/07/14 03:38:53;;;;;;;2.10;2.00;;;;;;;;;;4992592;28;20232;-86
2022/07/14 03:41:20;;;;;;;1.95;1.85;;;;;;;;;;4993597;28;20250;-86
2022/07/14 03:43:47;;;;;;;3.53;2.40;;;;;;;;;;4993446;28;20247;-86
2022/07/14 03:46:15;;;;;;;2.30;1.70;;;;;;;;;;5001468;28;20212;-86
2022/07/14 03:48:42;;;;;;;2.92;2.20;;;;;;;;;;4993263;28;20247;-86
2022/07/14 03:51:09;;;;;;;2.28;2.10;;;;;;;;;;4993331;28;20211;-86
2022/07/14 03:53:36;;;;;;;2.55;2.15;;;;;;;;;;4992417;28;20236;-86
2022/07/14 03:56:05;;;;;;;2.80;2.15;;;;;;;;;;4993693;28;20210;-86
2022/07/14 03:58:32;;;;;;;3.90;2.22;;;;;;;;;;4992443;28;20243;-86
2022/07/14 04:00:59;;;;;;;2.47;1.90;;;;;;;;;;5001431;28;20237;-86
2022/07/14 04:03:27;;;;;;;2.17;2.00;;;;;;;;;;5011589;28;20238;-86
2022/07/14 04:05:58;;;;;;;5.20;2.13;;;;;;;;;;5011810;28;20211;-86
2022/07/14 04:08:25;;;;;;;2.70;2.40;;;;;;;;;;5012045;28;20269;-86
2022/07/14 04:10:52;;;;;;;2.50;2.30;;;;;;;;;;5019987;28;20227;-87
2022/07/14 04:13:21;;;;;;;4.90;2.33;;;;;;;;;;5037744;28;20226;-86
2022/07/14 04:15:48;;;;;;;3.03;2.15;;;;;;;;;;5032060;28;20215;-87
2022/07/14 04:18:15;;;;;;;3.45;2.38;;;;;;;;;;5006867;28;20240;-87
2022/07/14 04:20:48;;;;;;;5.38;2.40;;;;;;;;;;4995975;28;20212;-87
2022/07/14 04:23:15;;;;;;;3.85;2.42;;;;;;;;;;5012054;28;20235;-86
2022/07/14 04:25:42;;;;;;;4.82;2.50;;;;;;;;;;5012826;28;20207;-87
2022/07/14 04:28:09;;;;;;;4.43;2.15;;;;;;;;;;5012520;28;20326;-86
2022/07/14 04:30:38;;;;;;;5.90;2.20;;;;;;;;;;5012262;28;20204;-86
2022/07/14 04:33:05;;;;;;;2.50;2.30;;;;;;;;;;5011927;28;20684;-84
2022/07/14 04:35:32;;;;;;;3.85;2.30;;;;;;;;;;5011151;28;20210;-84
2022/07/14 04:37:59;;;;;;;3.58;2.45;;;;;;;;;;5011416;28;20235;-83
2022/07/14 04:40:26;;;;;;;4.65;2.42;;;;;;;;;;5011147;28;20298;-84
2022/07/14 04:42:53;;;;;;;4.38;2.40;;;;;;;;;;4997381;28;20239;-85
2022/07/14 04:45:22;;;;;;;3.70;2.58;;;;;;;;;;5022870;28;20207;-85
2022/07/14 04:47:50;;;;;;;2.55;2.20;;;;;;;;;;5016054;28;20239;-85
2022/07/14 04:53:02;;;;;;;2.33;2.13;;;;;;;;;;5016083;28;20297;-84
2022/07/14 04:55:29;;;;;;;2.42;2.22;;;;;;;;;;5015468;28;20211;-84
2022/07/14 04:57:57;;;;;;;3.17;2.50;;;;;;;;;;5015104;28;20734;-85
2022/07/14 05:00:24;;;;;;;3.00;2.33;;;;;;;;;;5016400;28;20211;-84
2022/07/14 05:02:53;;;;;;;2.90;2.70;;;;;;;;;;5014580;28;20223;-85
2022/07/14 05:05:20;;;;;;;2.90;2.70;;;;;;;;;;5015503;28;20215;-85
2022/07/14 05:07:47;;;;;;;2.70;2.50;;;;;;;;;;5015138;28;20318;-84
2022/07/14 05:10:14;;;;;;;3.17;2.53;;;;;;;;;;5015742;28;20218;-83
2022/07/14 05:12:42;;;;;;;2.72;2.53;;;;;;;;;;5015224;28;20207;-84
2022/07/14 05:15:09;;;;;;;3.10;2.78;;;;;;;;;;5016189;28;20207;-83
2022/07/14 05:17:36;;;;;;;3.42;2.65;;;;;;;;;;5015233;28;20239;-84
2022/07/14 05:20:06;;;;;;;2.78;2.58;;;;;;;;;;5015317;28;20223;-84
2022/07/14 05:22:36;;;;;;;3.38;2.67;;;;;;;;;;5015195;28;20246;-84
2022/07/14 05:25:06;;;;;;;2.53;2.20;;;;;;;;;;5014767;28;20227;-84
2022/07/14 05:27:33;;;;;;;2.92;2.55;;;;;;;;;;5015456;28;20234;-84
2022/07/14 05:30:00;;;;;;;3.00;2.70;;;;;;;;;;5014647;28;20235;-84
2022/07/14 05:32:27;;;;;;;4.90;2.50;;;;;;;;;;5015035;28;20666;-84
2022/07/14 05:34:54;;;;;;;3.20;2.90;;;;;;;;;;5014609;28;20245;-84
2022/07/14 05:37:22;;;;;;;5.40;2.92;;;;;;;;;;5015460;28;20239;-84
2022/07/14 05:39:49;;;;;;;3.13;2.83;;;;;;;;;;5014569;28;20262;-85
2022/07/14 05:42:16;;;;;;;3.00;2.60;;;;;;;;;;5014497;28;20565;-84
2022/07/14 05:44:43;;;;;;;5.82;2.65;;;;;;;;;;5014515;28;20235;-84
2022/07/14 05:47:10;;;;;;;4.45;2.88;;;;;;;;;;5015464;28;20228;-84
2022/07/14 05:49:40;;;;;;;3.50;2.30;;;;;;;;;;5014393;28;20258;-83
2022/07/14 05:52:07;;;;;;;2.55;2.35;;;;;;;;;;5014809;28;20294;-84
2022/07/14 05:54:36;;;;;;;2.83;2.63;;;;;;;;;;5013880;28;20231;-85
2022/07/14 05:57:03;;;;;;;4.95;2.65;;;;;;;;;;5015714;28;20232;-85
2022/07/14 05:59:30;;;;;;;4.65;3.08;;;;;;;;;;5014270;28;20235;-85
2022/07/14 06:01:58;;;;;;;7.35;2.83;;;;;;;;;;5014845;28;20629;-84
2022/07/14 06:04:25;;;;;;;9.30;2.90;;;;;;;;;;5015165;28;20246;-84
2022/07/14 06:06:54;;;;;;;6.68;2.92;;;;;;;;;;5008817;28;20223;-85
2022/07/14 06:09:22;;;;;;;3.67;3.13;;;;;;;;;;5026950;28;20226;-84
2022/07/14 06:11:50;;;;;;;5.85;3.72;;;;;;;;;;5021620;28;20295;-84
2022/07/14 06:14:17;;;;;;;7.32;3.22;;;;;;;;;;5013161;28;20281;-84
2022/07/14 06:16:44;;;;;;;5.70;3.13;;;;;;;;;;5013797;28;20227;-84
2022/07/14 06:19:11;;;;;;;8.65;3.00;;;;;;;;;;5023462;28;20234;-84
2022/07/14 06:21:38;;;;;;;8.63;3.60;;;;;;;;;;5033709;28;20207;-84
2022/07/14 06:24:06;;;;;;;9.55;3.40;;;;;;;;;;5033841;28;20280;-84
2022/07/14 06:26:34;;;;;;;3.47;3.08;;;;;;;;;;5039975;28;20210;-84
2022/07/14 06:29:03;;;;;;;7.20;3.08;;;;;;;;;;5041246;28;20332;-84
2022/07/14 06:31:34;;;;;;;3.72;2.80;;;;;;;;;;5034862;28;20566;-84
2022/07/14 06:34:01;;;;;;;2.95;2.63;;;;;;;;;;5017216;28;20285;-84
2022/07/14 06:36:28;;;;;;;2.75;2.25;;;;;;;;;;5035513;28;20202;-84
2022/07/14 06:38:56;;;;;;;3.17;2.17;;;;;;;;;;5017164;28;20515;-84
2022/07/14 06:41:23;;;;;;;2.88;2.20;;;;;;;;;;5016076;28;20207;-84
2022/07/14 06:43:50;;;;;;;2.28;2.08;;;;;;;;;;5013060;28;20742;-84
2022/07/14 06:46:19;;;;;;;2.78;2.42;;;;;;;;;;5012854;28;20218;-84
2022/07/14 06:48:46;;;;;;;2.30;2.10;;;;;;;;;;5012838;28;20707;-84
2022/07/14 06:51:13;;;;;;;6.75;2.28;;;;;;;;;;5013106;28;20254;-84
2022/07/14 06:53:40;;;;;;;2.38;2.17;;;;;;;;;;5012231;28;20230;-84
2022/07/14 06:56:07;;;;;;;2.83;2.50;;;;;;;;;;5012530;28;20215;-84
2022/07/14 06:58:34;;;;;;;3.90;2.40;;;;;;;;;;5013120;28;20242;-84
2022/07/14 07:01:02;;;;;;;3.13;2.33;;;;;;;;;;5008978;28;20675;-84
2022/07/14 07:03:30;;;;;;;2.17;2.03;;;;;;;;;;5018722;28;20297;-84
2022/07/14 07:08:44;;;;;;;3.55;2.13;;;;;;;;;;5031991;28;20292;-85
2022/07/14 07:11:12;;;;;;;2.42;2.15;;;;;;;;;;5031908;28;20210;-84
2022/07/14 07:13:39;;;;;;;3.08;2.17;;;;;;;;;;5032075;28;20285;-85
2022/07/14 07:16:06;;;;;;;2.83;2.30;;;;;;;;;;5032810;28;20199;-85
2022/07/14 07:18:35;;;;;;;2.15;1.95;;;;;;;;;;5031310;28;20241;-85
2022/07/14 07:21:02;;;;;;;2.35;2.10;;;;;;;;;;5032126;28;20225;-84
2022/07/14 07:23:30;;;;;;;2.10;1.90;;;;;;;;;;5032003;28;20239;-85
2022/07/14 07:25:57;;;;;;;2.72;1.90;;;;;;;;;;5033330;28;20601;-85
2022/07/14 07:28:24;;;;;;;2.97;1.90;;;;;;;;;;5026746;28;20231;-84
2022/07/14 07:30:52;;;;;;;2.22;2.10;;;;;;;;;;5017139;28;20211;-85
2022/07/14 07:33:19;;;;;;;2.90;2.05;;;;;;;;;;5014278;28;20227;-85
2022/07/14 07:35:47;;;;;;;2.33;2.13;;;;;;;;;;5032300;28;20215;-85
2022/07/14 07:38:14;;;;;;;4.30;2.20;;;;;;;;;;5031786;28;20238;-85
2022/07/14 07:40:41;;;;;;;3.58;2.30;;;;;;;;;;5031834;28;20207;-85
2022/07/14 07:43:09;;;;;;;2.15;1.90;;;;;;;;;;5031861;28;20238;-85
2022/07/14 07:45:36;;;;;;;2.25;2.08;;;;;;;;;;5025685;28;20207;-85
2022/07/14 07:48:04;;;;;;;2.42;2.00;;;;;;;;;;5011502;28;20242;-85
2022/07/14 07:50:31;;;;;;;2.38;2.17;;;;;;;;;;5012764;28;20261;-85
2022/07/14 07:53:00;;;;;;;2.30;2.13;;;;;;;;;;5011701;28;20231;-85
2022/07/14 07:55:27;;;;;;;2.38;2.10;;;;;;;;;;5012109;28;20625;-85
2022/07/14 07:57:54;;;;;;;2.55;2.35;;;;;;;;;;5011147;28;20975;-85
2022/07/14 08:00:21;;;;;;;2.10;2.00;;;;;;;;;;5012457;28;20203;-85
2022/07/14 08:02:49;;;;;;;2.88;1.98;;;;;;;;;;5011442;28;20226;-85
2022/07/14 08:05:17;;;;;;;4.05;2.33;;;;;;;;;;5012284;28;20549;-85
2022/07/14 08:07:44;;;;;;;2.25;2.10;;;;;;;;;;5020075;28;20227;-85
2022/07/14 08:10:12;;;;;;;2.15;1.95;;;;;;;;;;5012272;28;20219;-86
2022/07/14 08:12:39;;;;;;;2.58;2.00;;;;;;;;;;5011204;28;20580;-85
2022/07/14 08:15:07;;;;;;;2.15;1.95;;;;;;;;;;5011843;28;20683;-85
2022/07/14 08:17:34;;;;;;;2.03;1.80;;;;;;;;;;5012681;28;20231;-86
2022/07/14 08:20:01;;;;;;;2.58;2.15;;;;;;;;;;5015645;28;20242;-86
2022/07/14 08:22:29;;;;;;;2.50;2.30;;;;;;;;;;5015848;28;20231;-86
2022/07/14 08:24:56;;;;;;;2.13;1.92;;;;;;;;;;5014635;28;20254;-85
2022/07/14 08:27:26;;;;;;;2.70;1.77;;;;;;;;;;5015468;28;20243;-86
2022/07/14 08:29:54;;;;;;;2.33;2.00;;;;;;;;;;5014773;28;20235;-86
2022/07/14 08:32:34;;;;;;;3.60;1.83;;;;;;;;;;5015505;28;20211;-86
2022/07/14 08:35:02;;;;;;;2.72;1.75;;;;;;;;;;5015498;28;20235;-86
2022/07/14 08:37:29;;;;;;;2.45;2.10;;;;;;;;;;5015483;28;20616;-85
2022/07/14 08:39:56;;;;;;;2.35;2.15;;;;;;;;;;5014715;28;20243;-86
2022/07/14 08:42:23;;;;;;;1.70;1.60;;;;;;;;;;5015418;28;20228;-85
2022/07/14 08:44:52;;;;;;;2.75;1.98;;;;;;;;;;5021760;28;20773;-86
2022/07/14 08:47:19;;;;;;;1.85;1.75;;;;;;;;;;5034880;28;20626;-86
2022/07/14 08:49:47;;;;;;;4.38;2.28;;;;;;;;;;5034573;28;20667;-86
2022/07/14 08:52:14;;;;;;;2.45;1.80;;;;;;;;;;5035000;28;20597;-85
2022/07/14 08:54:42;;;;;;;3.58;2.10;;;;;;;;;;5034440;28;20234;-85
2022/07/14 08:57:09;;;;;;;2.60;1.88;;;;;;;;;;5034677;28;20222;-86
2022/07/14 08:59:36;;;;;;;5.25;2.10;;;;;;;;;;5030803;28;20698;-85
2022/07/14 09:02:04;;;;;;;2.20;2.00;;;;;;;;;;5016431;28;20192;-85
2022/07/14 09:04:32;;;;;;;1.70;1.60;;;;;;;;;;5013834;28;20730;-86
2022/07/14 09:06:59;;;;;;;2.10;2.00;;;;;;;;;;5015251;28;20234;-85
2022/07/14 09:09:27;;;;;;;3.67;1.63;;;;;;;;;;5014178;28;20318;-85
2022/07/14 09:11:54;;;;;;;2.38;1.83;;;;;;;;;;5014413;28;20629;-88
2022/07/14 09:14:22;;;;;;;2.25;1.85;;;;;;;;;;5014476;28;20242;-86
2022/07/14 09:16:49;;;;;;;4.38;1.80;;;;;;;;;;5014792;28;20236;-88
2022/07/14 09:19:19;;;;;;;2.70;1.90;;;;;;;;;;5014877;28;20297;-87
2022/07/14 09:21:47;;;;;;;2.17;1.80;;;;;;;;;;5014521;28;20247;-85
2022/07/14 09:24:14;;;;;;;2.33;1.80;;;;;;;;;;5014223;28;20245;-86
2022/07/14 09:26:45;;;;;;;2.13;1.92;;;;;;;;;;5014579;28;20760;-87
2022/07/14 09:29:17;;;;;;;2.33;1.88;;;;;;;;;;5012856;28;20242;-86
2022/07/14 09:31:45;;;;;;;2.05;1.95;;;;;;;;;;5014898;28;20327;-86
2022/07/14 09:34:26;;;;;;;1.92;1.83;;;;;;;;;;5017760;28;20270;-87
2022/07/14 09:36:53;;;;;;;2.90;2.10;;;;;;;;;;5027987;28;20236;-87
2022/07/14 09:39:21;;;;;;;2.30;2.20;;;;;;;;;;5016368;28;20234;-87
2022/07/14 09:41:53;;;;;;;3.78;1.75;;;;;;;;;;5015294;28;20254;-89
2022/07/14 09:44:20;;;;;;;2.90;1.83;;;;;;;;;;5014394;28;20235;-87
2022/07/14 09:46:48;;;;;;;1.98;1.73;;;;;;;;;;5014164;28;20231;-86
2022/07/14 09:49:16;;;;;;;1.80;1.70;;;;;;;;;;5013280;28;20397;-86
2022/07/14 09:51:58;;;;;;;3.58;1.75;;;;;;;;;;5014498;28;20207;-87
2022/07/14 09:54:41;;;;;;;1.90;1.75;;;;;;;;;;5013818;28;20242;-86
2022/07/14 09:57:08;;;;;;;3.33;1.70;;;;;;;;;;5014204;28;20223;-84
2022/07/14 09:59:43;;;;;;;2.85;2.22;;;;;;;;;;5013451;28;20243;-86
2022/07/14 10:02:12;;;;;;;4.00;2.08;;;;;;;;;;5014044;28;20222;-86
2022/07/14 10:04:39;;;;;;;2.40;2.17;;;;;;;;;;5013171;28;20239;-84
2022/07/14 10:07:08;;;;;;;2.67;1.80;;;;;;;;;;5013930;28;20591;-85
2022/07/14 10:09:37;;;;;;;2.00;1.75;;;;;;;;;;5012547;28;20241;-85
2022/07/14 10:12:04;;;;;;;2.17;2.08;;;;;;;;;;5013597;28;20211;-85
2022/07/14 10:14:31;;;;;;;2.72;2.13;;;;;;;;;;5013018;28;20240;-87
2022/07/14 10:16:59;;;;;;;3.50;2.92;;;;;;;;;;5013348;28;20592;-86
2022/07/14 10:19:27;;;;;;;3.53;1.73;;;;;;;;;;5012667;28;20734;-86
2022/07/14 10:21:56;;;;;;;2.10;1.90;;;;;;;;;;5013173;28;20675;-86
2022/07/14 10:24:25;;;;;;;1.80;1.70;;;;;;;;;;5012537;28;20273;-86
2022/07/14 10:26:52;;;;;;;3.30;2.13;;;;;;;;;;5013972;28;20231;-84
2022/07/14 10:29:19;;;;;;;2.00;1.63;;;;;;;;;;5013146;28;20239;-85
2022/07/14 10:31:54;;;;;;;2.85;2.25;;;;;;;;;;5012757;28;20207;-85
2022/07/14 10:34:27;;;;;;;3.92;1.70;;;;;;;;;;5012396;28;20602;-86
2022/07/14 10:37:00;;;;;;;3.53;1.77;;;;;;;;;;5012694;28;20719;-85
2022/07/14 10:39:30;;;;;;;1.67;1.58;;;;;;;;;;5015929;28;20235;-86
2022/07/14 10:42:02;;;;;;;1.90;1.80;;;;;;;;;;5015765;28;20203;-84
2022/07/14 10:44:30;;;;;;;1.90;1.80;;;;;;;;;;5012845;28;20243;-84
2022/07/14 10:47:08;;;;;;;1.98;1.88;;;;;;;;;;5013016;28;20231;-84
2022/07/14 10:49:54;;;;;;;2.13;1.77;;;;;;;;;;5012779;28;20235;-83
2022/07/14 10:52:28;;;;;;;1.95;1.73;;;;;;;;;;5012795;28;20214;-85
2022/07/14 10:58:06;;;;;;;3.70;1.80;;;;;;;;;;5107271;27;21106;-84
2022/07/14 11:00:58;;;;;;;2.15;1.70;;;;;;;;;;5071913;28;20292;-88
2022/07/14 11:03:26;;;;;;;1.90;1.65;;;;;;;;;;5069107;28;20233;-85
2022/07/14 11:06:08;;;;;;;2.15;1.75;;;;;;;;;;5068422;28;20716;-85
2022/07/14 11:08:37;;;;;;;1.80;1.70;;;;;;;;;;5067280;28;20232;-86
2022/07/14 11:11:10;;;;;;;1.90;1.80;;;;;;;;;;5068584;28;20244;-86
2022/07/14 11:13:55;;;;;;;1.80;1.70;;;;;;;;;;5068746;28;20229;-86
2022/07/14 11:16:43;;;;;;;2.08;1.92;;;;;;;;;;5053597;28;20320;-86
2022/07/14 11:19:23;;;;;;;2.42;1.90;;;;;;;;;;5068173;28;20237;-87
2022/07/14 11:22:06;;;;;;;1.90;1.80;;;;;;;;;;5067999;28;20190;-86
2022/07/14 11:24:33;;;;;;;3.58;1.98;;;;;;;;;;5052258;28;20317;-87
2022/07/14 11:27:23;;;;;;;2.33;2.05;;;;;;;;;;5049158;28;20226;-85
2022/07/14 11:29:50;;;;;;;2.58;1.48;;;;;;;;;;5085759;28;20248;-85
2022/07/14 11:32:29;;;;;;;1.88;1.70;;;;;;;;;;5087970;28;20201;-86
2022/07/14 11:37:59;;;;;;;2.25;1.92;;;;;;;;;;5087620;28;20227;-85
2022/07/14 11:40:43;;;;;;;2.05;1.60;;;;;;;;;;5086710;28;20204;-83
2022/07/14 11:43:32;;;;;;;2.53;2.10;;;;;;;;;;5066840;28;20233;-82
2022/07/14 11:46:00;;;;;;;2.78;1.70;;;;;;;;;;5071155;28;20209;-85
2022/07/14 11:48:30;;;;;;;3.53;1.80;;;;;;;;;;5086710;28;20239;-84
2022/07/14 11:51:03;;;;;;;3.92;1.80;;;;;;;;;;5083866;28;20212;-84
2022/07/14 11:53:30;;;;;;;2.58;1.70;;;;;;;;;;5085731;28;20319;-85
2022/07/14 11:55:58;;;;;;;3.10;1.90;;;;;;;;;;5083874;28;20234;-84
2022/07/14 11:58:25;;;;;;;3.50;1.80;;;;;;;;;;5081026;28;20339;-85
2022/07/14 12:00:55;;;;;;;4.05;1.70;;;;;;;;;;5085844;28;20200;-85
2022/07/14 12:03:23;;;;;;;1.70;1.60;;;;;;;;;;5078227;28;20320;-84
2022/07/14 12:05:52;;;;;;;2.92;1.73;;;;;;;;;;5072364;28;20287;-85
2022/07/14 12:08:24;;;;;;;1.80;1.70;;;;;;;;;;5074363;28;20311;-85
2022/07/14 12:10:51;;;;;;;3.15;1.95;;;;;;;;;;5059488;28;20200;-84
2022/07/14 12:13:18;;;;;;;1.98;1.80;;;;;;;;;;5069793;28;20254;-85
2022/07/14 12:15:47;;;;;;;2.00;1.73;;;;;;;;;;5060340;28;20200;-84
2022/07/14 12:18:15;;;;;;;4.55;2.13;;;;;;;;;;5070116;28;20935;-85
2022/07/14 12:20:44;;;;;;;2.00;1.90;;;;;;;;;;5063835;28;20208;-84
2022/07/14 12:23:12;;;;;;;2.42;1.80;;;;;;;;;;5062799;28;20240;-89
2022/07/14 12:25:42;;;;;;;2.15;2.00;;;;;;;;;;5074936;28;20228;-88
2022/07/14 12:28:10;;;;;;;2.65;2.25;;;;;;;;;;5058666;28;20237;-90
2022/07/14 12:30:46;;;;;;;3.83;2.00;;;;;;;;;;5059466;28;20220;-91
2022/07/14 12:33:20;;;;;;;3.47;2.00;;;;;;;;;;5060869;28;20751;-90
2022/07/14 12:35:48;;;;;;;1.83;1.70;;;;;;;;;;5074296;28;20196;-90
2022/07/14 12:38:17;;;;;;;2.35;1.90;;;;;;;;;;5076560;28;20233;-88
2022/07/14 12:40:48;;;;;;;1.80;1.70;;;;;;;;;;5077396;28;20197;-90
2022/07/14 12:43:15;;;;;;;2.33;1.80;;;;;;;;;;5062762;28;20287;-89
2022/07/14 12:45:58;;;;;;;4.53;2.10;;;;;;;;;;5063946;28;20201;-89
2022/07/14 12:48:25;;;;;;;4.25;2.15;;;;;;;;;;5057446;28;20229;-89
2022/07/14 12:50:53;;;;;;;1.90;1.80;;;;;;;;;;5073296;28;20201;-90
2022/07/14 12:53:20;;;;;;;2.03;1.92;;;;;;;;;;5077730;28;20232;-88
2022/07/14 12:55:48;;;;;;;2.70;2.05;;;;;;;;;;5078376;28;20217;-88
2022/07/14 12:58:16;;;;;;;3.15;1.92;;;;;;;;;;5076344;28;20232;-89
2022/07/14 13:00:45;;;;;;;5.45;2.20;;;;;;;;;;5079882;28;20204;-85
2022/07/14 13:03:13;;;;;;;2.25;1.77;;;;;;;;;;5075742;28;20232;-89
2022/07/14 13:05:45;;;;;;;1.95;1.85;;;;;;;;;;5080242;28;20208;-87
2022/07/14 13:08:33;;;;;;;2.58;1.85;;;;;;;;;;5079638;28;20261;-88
2022/07/14 13:11:03;;;;;;;3.42;1.95;;;;;;;;;;5077242;28;20216;-88
2022/07/14 13:13:30;;;;;;;2.40;2.20;;;;;;;;;;5074072;28;20607;-91
2022/07/14 13:16:17;;;;;;;2.67;2.08;;;;;;;;;;5073520;28;20664;-89
2022/07/14 13:19:04;;;;;;;1.90;1.80;;;;;;;;;;5072577;28;20324;-88
2022/07/14 13:21:47;;;;;;;2.90;2.70;;;;;;;;;;5073058;28;20209;-88
2022/07/14 13:24:15;;;;;;;2.25;2.05;;;;;;;;;;5072741;28;20252;-86
2022/07/14 13:26:44;;;;;;;2.75;2.05;;;;;;;;;;5070791;28;20221;-86
2022/07/14 13:29:11;;;;;;;1.80;1.70;;;;;;;;;;5052399;28;20241;-86
2022/07/14 13:31:38;;;;;;;3.13;1.85;;;;;;;;;;5052831;28;20213;-86
2022/07/14 13:34:05;;;;;;;9.10;3.28;;;;;;;;;;5052500;28;20234;-86
2022/07/14 13:36:32;;;;;;;5.68;1.85;;;;;;;;;;5053466;28;20587;-85
2022/07/14 13:38:59;;;;;;;4.25;2.95;;;;;;;;;;5051928;28;20265;-86
2022/07/14 13:41:30;;;;;;;2.38;1.70;;;;;;;;;;5052648;28;20210;-85
2022/07/14 13:44:00;;;;;;;2.10;1.90;;;;;;;;;;5052230;28;20241;-86
2022/07/14 13:46:29;;;;;;;2.17;2.00;;;;;;;;;;5067876;28;20209;-87
2022/07/14 13:48:56;;;;;;;1.83;1.73;;;;;;;;;;5071576;28;21016;-85
2022/07/14 13:54:11;;;;;;;3.08;1.70;;;;;;;;;;5071541;28;20754;-85
2022/07/14 13:56:40;;;;;;;2.58;1.70;;;;;;;;;;5071799;28;20231;-85
2022/07/14 13:59:09;;;;;;;1.52;1.42;;;;;;;;;;5071786;28;20235;-85
2022/07/14 14:01:36;;;;;;;2.03;1.90;;;;;;;;;;5071571;28;20198;-87
2022/07/14 14:04:04;;;;;;;3.47;1.88;;;;;;;;;;5058613;28;20237;-88
2022/07/14 14:06:31;;;;;;;2.83;1.80;;;;;;;;;;5052718;28;20558;-86
2022/07/14 14:08:59;;;;;;;2.10;1.73;;;;;;;;;;5052064;28;20238;-86
2022/07/14 14:11:26;;;;;;;3.03;1.90;;;;;;;;;;5051771;28;20217;-87
2022/07/14 14:13:53;;;;;;;1.92;1.50;;;;;;;;;;5052521;28;20317;-82
2022/07/14 14:16:21;;;;;;;4.20;1.48;;;;;;;;;;5056185;28;20319;-83
2022/07/14 14:18:49;;;;;;;2.63;1.70;;;;;;;;;;5101177;22;20237;-80
2022/07/14 14:21:16;;;;;;;1.98;1.27;;;;;;;;;;5073606;28;20206;-81
2022/07/14 14:23:44;;;;;;;2.03;1.40;;;;;;;;;;5073966;28;20320;-80
2022/07/14 14:26:11;;;;;;;2.13;1.63;;;;;;;;;;5074425;28;20205;-80
2022/07/14 14:28:39;;;;;;;1.40;1.25;;;;;;;;;;5073025;28;20320;-81
2022/07/14 14:31:06;;;;;;;2.95;1.58;;;;;;;;;;5073687;28;20201;-82
2022/07/14 14:33:34;;;;;;;2.83;1.40;;;;;;;;;;5073197;28;20233;-83
2022/07/14 14:36:02;;;;;;;1.73;1.63;;;;;;;;;;5074336;28;20215;-82
2022/07/14 14:38:29;;;;;;;4.47;1.45;;;;;;;;;;5073627;28;20236;-82
2022/07/14 14:40:56;;;;;;;2.78;1.35;;;;;;;;;;5073762;28;20190;-83
2022/07/14 14:43:23;;;;;;;4.47;1.52;;;;;;;;;;5080108;28;20290;-83
2022/07/14 14:45:50;;;;;;;3.05;1.52;;;;;;;;;;5071558;28;20228;-82
2022/07/14 14:48:18;;;;;;;2.92;1.30;;;;;;;;;;5070739;28;20240;-84
2022/07/14 14:50:46;;;;;;;3.42;1.50;;;;;;;;;;5071929;28;20233;-82
2022/07/14 14:53:14;;;;;;;1.70;1.60;;;;;;;;;;5070991;28;20233;-81
2022/07/14 14:55:41;;;;;;;3.00;1.30;;;;;;;;;;5072614;28;20205;-81
2022/07/14 14:58:08;;;;;;;1.98;1.70;;;;;;;;;;5071018;28;20233;-81
2022/07/14 15:00:35;;;;;;;2.30;1.45;;;;;;;;;;5072325;28;20292;-82
2022/07/14 15:03:02;;;;;;;2.70;2.30;;;;;;;;;;5072196;28;20615;-82
2022/07/14 15:05:29;;;;;;;1.58;1.40;;;;;;;;;;5081733;28;20212;-82
2022/07/14 15:07:57;;;;;;;3.40;1.80;;;;;;;;;;5075117;28;20228;-81
2022/07/14 15:10:25;;;;;;;4.03;1.35;;;;;;;;;;5077325;28;20536;-82